»·PEaware :: STRYK11 KGCN-KBUR

STRYK11 :: KGCN-KBUR

FLIGHT INFORMATION

Flight Status: Arrived
Operator: Unknown
More flights by this operator :: More flights under this callsign
Pilot: Kevin M. (7)
Aircraft: Unknown
(F35)
More flights by this aircraft type
Origin: KGCN Grand Canyon Natl Park
United States
Destination: KBUR Bob Hope-Burbank
United States
More flights between these airports :: More routes between these airports
Route: PARKS4 PGS WELUM JANNY5
File this flight plan on PilotEdge
Remarks:
Altitude:
(Current/Filed)
36,000ft
Speed:
(Current/Filed)
570kts
Departed: 24-Sep-19 12:23 PM
Arrived: 24-Sep-19 01:08 PM
Distance/Time
Traveled:
323nm/0:45
Distance/Time
To Go:
Arrived

Flight Plot

Page will automatically refresh every two minutes.

Flight plan parsing failed; only flown route is shown


Map Options




Map Legend


Flown Route
Filed Route
Departure Airport
Arrival Airport
Navaid (VOR, NDB)
Fix

Horizontal Profiles

Position Reports

Time Latitude Longitude Heading Altitude Ground
Speed
24-Sep-19 12:14 35.959691 -112.136306 311 6620ft 0kts
24-Sep-19 12:15 35.959691 -112.136306 311 6620ft 0kts
24-Sep-19 12:16 35.959691 -112.136306 311 6620ft 0kts
24-Sep-19 12:17 35.959691 -112.136306 311 6620ft 0kts
24-Sep-19 12:18 35.959691 -112.136306 311 6620ft 0kts
24-Sep-19 12:19 35.959691 -112.136306 311 6620ft 0kts
24-Sep-19 12:20 35.959766 -112.136411 311 6619ft 3kts
24-Sep-19 12:21 35.961338 -112.136740 309 6613ft 16kts
24-Sep-19 12:22 35.960794 -112.138030 221 6612ft 60kts
24-Sep-19 12:23 35.919803 -112.180869 224 10482ft 334kts
24-Sep-19 12:24 35.909727 -112.345458 261 23015ft 625kts
24-Sep-19 12:25 35.863880 -112.555649 262 23310ft 720kts
24-Sep-19 12:26 35.806268 -112.800481 250 27480ft 685kts
24-Sep-19 12:27 35.752939 -113.018044 254 31847ft 687kts
24-Sep-19 12:28 35.654701 -113.232853 224 33925ft 721kts
24-Sep-19 12:29 35.521982 -113.341680 227 36179ft 589kts
24-Sep-19 12:30 35.476154 -113.528906 271 36164ft 594kts
24-Sep-19 12:31 35.463364 -113.736472 270 36119ft 615kts
24-Sep-19 12:32 35.449990 -113.946571 270 36130ft 616kts
24-Sep-19 12:33 35.436317 -114.155765 270 36131ft 617kts
24-Sep-19 12:34 35.422204 -114.365775 270 36074ft 618kts
24-Sep-19 12:35 35.407647 -114.575993 270 36000ft 618kts
24-Sep-19 12:36 35.392811 -114.785746 269 35992ft 617kts
24-Sep-19 12:37 35.365759 -114.993244 249 36042ft 631kts
24-Sep-19 12:38 35.307147 -115.193131 254 36074ft 617kts
24-Sep-19 12:39 35.249814 -115.390265 254 36100ft 615kts
24-Sep-19 12:40 35.192300 -115.586606 254 36127ft 615kts
24-Sep-19 12:41 35.134556 -115.782392 254 36107ft 615kts
24-Sep-19 12:42 35.048094 -115.964850 241 36093ft 624kts
24-Sep-19 12:43 34.955915 -116.145660 242 36109ft 629kts
24-Sep-19 12:45 34.873390 -116.335499 250 33203ft 678kts
24-Sep-19 12:46 34.807756 -116.500395 254 23106ft 532kts
24-Sep-19 12:47 34.775067 -116.687490 267 22147ft 606kts
24-Sep-19 12:48 34.754415 -116.894923 266 20837ft 621kts
24-Sep-19 12:49 34.733224 -117.103633 265 18716ft 618kts
24-Sep-19 12:50 34.713233 -117.296217 265 16698ft 469kts
24-Sep-19 12:51 34.696654 -117.456416 264 14864ft 563kts
24-Sep-19 12:52 34.677172 -117.638522 265 14045ft 519kts
24-Sep-19 12:53 34.659178 -117.807785 264 13986ft 463kts
24-Sep-19 12:54 34.643915 -117.949078 264 13092ft 400kts
24-Sep-19 12:55 34.627795 -118.078997 255 11658ft 382kts
24-Sep-19 12:56 34.598222 -118.212908 256 10366ft 372kts
24-Sep-19 12:57 34.573755 -118.322684 255 8551ft 325kts
24-Sep-19 12:58 34.549192 -118.425076 241 8118ft 315kts
24-Sep-19 12:59 34.479270 -118.487599 212 7203ft 314kts
24-Sep-19 13:00 34.406309 -118.543843 206 6209ft 306kts
24-Sep-19 13:01 34.331110 -118.566617 171 5761ft 253kts
24-Sep-19 13:02 34.260314 -118.561169 169 5642ft 255kts
24-Sep-19 13:03 34.202910 -118.522941 122 4444ft 246kts
24-Sep-19 13:04 34.198875 -118.453049 92 2297ft 157kts
24-Sep-19 13:05 34.198329 -118.400449 91 1613ft 159kts
24-Sep-19 13:06 34.197603 -118.346377 99 1280ft 185kts
24-Sep-19 13:06 34.184982 -118.390109 269 1512ft 227kts
24-Sep-19 13:08 34.197681 -118.351629 95 700ft 38kts
24-Sep-19 13:08 34.198822 -118.355912 270 715ft 22kts
24-Sep-19 13:09 34.199889 -118.359135 349 725ft 0kts
24-Sep-19 13:10 34.199889 -118.359135 349 725ft 0kts
24-Sep-19 13:11 34.199889 -118.359135 349 725ft 0kts
24-Sep-19 13:12 34.199889 -118.359135 349 725ft 0kts
24-Sep-19 13:13 34.199889 -118.359135 349 725ft 0kts
24-Sep-19 13:14 34.199889 -118.359135 349 725ft 0kts
24-Sep-19 13:15 34.199889 -118.359135 349 725ft 0kts
24-Sep-19 13:16 34.199889 -118.359135 349 725ft 0kts
24-Sep-19 13:17 34.199889 -118.359135 349 725ft 0kts
24-Sep-19 13:18 34.199889 -118.359135 349 725ft 0kts
24-Sep-19 13:19 34.199889 -118.359135 349 725ft 0kts
24-Sep-19 13:20 34.199889 -118.359135 349 725ft 0kts
24-Sep-19 13:21 34.199889 -118.359135 349 725ft 0kts
24-Sep-19 13:22 34.199889 -118.359135 349 725ft 0kts

Navigation Log

Ident Type
Flight plan parsing failed, navigation log unavailable